sensor_id;sensor_type;location;lat;lon;timestamp;pressure;altitude;pressure_sealevel;temperature;humidity
51239;BME280;38154;47.548;18.828;2022-09-01T00:02:06;98788.47;;;16.54;100.00
51239;BME280;38154;47.548;18.828;2022-09-01T00:04:37;98799.22;;;16.43;100.00
51239;BME280;38154;47.548;18.828;2022-09-01T00:07:04;98814.06;;;16.47;100.00
51239;BME280;38154;47.548;18.828;2022-09-01T00:09:31;98808.09;;;16.39;100.00
51239;BME280;38154;47.548;18.828;2022-09-01T00:11:57;98807.34;;;16.32;100.00
51239;BME280;38154;47.548;18.828;2022-09-01T00:14:26;98820.56;;;16.29;100.00
51239;BME280;38154;47.548;18.828;2022-09-01T00:16:53;98825.56;;;16.42;100.00
51239;BME280;38154;47.548;18.828;2022-09-01T00:19:19;98810.81;;;16.35;100.00
51239;BME280;38154;47.548;18.828;2022-09-01T00:21:45;98813.72;;;16.22;100.00
51239;BME280;38154;47.548;18.828;2022-09-01T00:24:14;98813.66;;;16.24;100.00
51239;BME280;38154;47.548;18.828;2022-09-01T00:26:40;98817.56;;;16.06;100.00
51239;BME280;38154;47.548;18.828;2022-09-01T00:29:06;98818.09;;;16.22;100.00
51239;BME280;38154;47.548;18.828;2022-09-01T00:31:32;98807.53;;;16.23;100.00
51239;BME280;38154;47.548;18.828;2022-09-01T00:33:59;98820.13;;;16.09;100.00
51239;BME280;38154;47.548;18.828;2022-09-01T00:36:25;98817.19;;;16.24;100.00
51239;BME280;38154;47.548;18.828;2022-09-01T00:38:51;98823.44;;;16.17;100.00
51239;BME280;38154;47.548;18.828;2022-09-01T00:41:19;98819.09;;;16.16;100.00
51239;BME280;38154;47.548;18.828;2022-09-01T00:43:48;98820.28;;;16.01;100.00
51239;BME280;38154;47.548;18.828;2022-09-01T00:46:18;98806.84;;;16.15;100.00
51239;BME280;38154;47.548;18.828;2022-09-01T00:48:45;98814.94;;;16.06;100.00
51239;BME280;38154;47.548;18.828;2022-09-01T00:51:14;98799.13;;;16.07;100.00
51239;BME280;38154;47.548;18.828;2022-09-01T00:53:40;98812.50;;;15.95;100.00
51239;BME280;38154;47.548;18.828;2022-09-01T00:56:08;98798.56;;;15.90;100.00
51239;BME280;38154;47.548;18.828;2022-09-01T00:58:35;98784.84;;;15.74;100.00
51239;BME280;38154;47.548;18.828;2022-09-01T01:01:03;98792.75;;;15.75;100.00
51239;BME280;38154;47.548;18.828;2022-09-01T01:03:29;98800.44;;;15.85;100.00
51239;BME280;38154;47.548;18.828;2022-09-01T01:05:57;98801.91;;;15.98;100.00
51239;BME280;38154;47.548;18.828;2022-09-01T01:08:29;98810.78;;;15.94;100.00
51239;BME280;38154;47.548;18.828;2022-09-01T01:11:08;98816.88;;;15.96;100.00
51239;BME280;38154;47.548;18.828;2022-09-01T01:13:47;98812.72;;;15.84;100.00
51239;BME280;38154;47.548;18.828;2022-09-01T01:16:14;98814.13;;;15.54;100.00
51239;BME280;38154;47.548;18.828;2022-09-01T01:18:41;98819.66;;;15.38;100.00
51239;BME280;38154;47.548;18.828;2022-09-01T01:21:12;98824.94;;;15.37;100.00
51239;BME280;38154;47.548;18.828;2022-09-01T01:26:44;98827.31;;;15.52;100.00
51239;BME280;38154;47.548;18.828;2022-09-01T01:29:11;98835.13;;;15.55;100.00
51239;BME280;38154;47.548;18.828;2022-09-01T01:31:37;98827.44;;;15.45;100.00
51239;BME280;38154;47.548;18.828;2022-09-01T01:34:03;98815.19;;;15.44;100.00
51239;BME280;38154;47.548;18.828;2022-09-01T01:36:35;98812.72;;;15.34;100.00
51239;BME280;38154;47.548;18.828;2022-09-01T01:39:07;98803.19;;;15.30;100.00
51239;BME280;38154;47.548;18.828;2022-09-01T01:41:35;98812.09;;;15.20;100.00
51239;BME280;38154;47.548;18.828;2022-09-01T01:44:07;98809.56;;;15.14;100.00
51239;BME280;38154;47.548;18.828;2022-09-01T01:46:35;98804.53;;;15.01;100.00
51239;BME280;38154;47.548;18.828;2022-09-01T01:49:01;98807.00;;;15.09;100.00
51239;BME280;38154;47.548;18.828;2022-09-01T01:51:28;98797.50;;;15.03;100.00
51239;BME280;38154;47.548;18.828;2022-09-01T01:53:57;98787.06;;;14.99;100.00
51239;BME280;38154;47.548;18.828;2022-09-01T01:56:31;98786.69;;;15.20;100.00
51239;BME280;38154;47.548;18.828;2022-09-01T01:58:58;98777.62;;;15.38;100.00
51239;BME280;38154;47.548;18.828;2022-09-01T02:01:28;98774.28;;;15.30;100.00
51239;BME280;38154;47.548;18.828;2022-09-01T02:03:57;98777.91;;;15.21;100.00
51239;BME280;38154;47.548;18.828;2022-09-01T02:06:25;98772.75;;;15.17;100.00
51239;BME280;38154;47.548;18.828;2022-09-01T02:08:54;98763.16;;;15.14;100.00
51239;BME280;38154;47.548;18.828;2022-09-01T02:11:24;98775.41;;;15.15;100.00
51239;BME280;38154;47.548;18.828;2022-09-01T02:13:54;98784.22;;;15.11;100.00
51239;BME280;38154;47.548;18.828;2022-09-01T02:16:23;98787.72;;;15.12;100.00
51239;BME280;38154;47.548;18.828;2022-09-01T02:18:50;98786.94;;;15.07;100.00
51239;BME280;38154;47.548;18.828;2022-09-01T02:21:20;98796.78;;;14.92;100.00
51239;BME280;38154;47.548;18.828;2022-09-01T02:23:50;98792.31;;;14.99;100.00
51239;BME280;38154;47.548;18.828;2022-09-01T02:26:22;98794.72;;;15.11;100.00
51239;BME280;38154;47.548;18.828;2022-09-01T02:28:48;98798.25;;;15.10;100.00
51239;BME280;38154;47.548;18.828;2022-09-01T02:31:14;98801.06;;;14.98;100.00
51239;BME280;38154;47.548;18.828;2022-09-01T02:33:40;98798.44;;;14.98;100.00
51239;BME280;38154;47.548;18.828;2022-09-01T02:36:14;98798.59;;;14.90;100.00
51239;BME280;38154;47.548;18.828;2022-09-01T02:38:41;98784.78;;;14.77;100.00
51239;BME280;38154;47.548;18.828;2022-09-01T02:41:11;98765.28;;;14.92;100.00
51239;BME280;38154;47.548;18.828;2022-09-01T02:43:39;98772.31;;;14.92;100.00
51239;BME280;38154;47.548;18.828;2022-09-01T02:46:05;98765.22;;;14.97;100.00
51239;BME280;38154;47.548;18.828;2022-09-01T02:48:34;98770.50;;;14.94;100.00
51239;BME280;38154;47.548;18.828;2022-09-01T02:51:05;98754.91;;;14.84;100.00
51239;BME280;38154;47.548;18.828;2022-09-01T02:53:33;98760.31;;;14.75;100.00
51239;BME280;38154;47.548;18.828;2022-09-01T02:56:01;98749.09;;;14.64;100.00
51239;BME280;38154;47.548;18.828;2022-09-01T02:58:29;98745.75;;;14.51;100.00
51239;BME280;38154;47.548;18.828;2022-09-01T03:00:57;98741.59;;;14.38;100.00
51239;BME280;38154;47.548;18.828;2022-09-01T03:03:24;98739.88;;;14.37;100.00
51239;BME280;38154;47.548;18.828;2022-09-01T03:05:51;98741.66;;;14.35;100.00
51239;BME280;38154;47.548;18.828;2022-09-01T03:08:23;98730.28;;;14.33;100.00
51239;BME280;38154;47.548;18.828;2022-09-01T03:10:50;98738.34;;;14.20;100.00
51239;BME280;38154;47.548;18.828;2022-09-01T03:13:21;98740.94;;;14.23;100.00
51239;BME280;38154;47.548;18.828;2022-09-01T03:15:49;98754.88;;;14.27;100.00
51239;BME280;38154;47.548;18.828;2022-09-01T03:18:16;98759.34;;;14.19;100.00
51239;BME280;38154;47.548;18.828;2022-09-01T03:20:44;98757.63;;;14.18;100.00
51239;BME280;38154;47.548;18.828;2022-09-01T03:23:16;98762.91;;;14.16;100.00
51239;BME280;38154;47.548;18.828;2022-09-01T03:25:44;98764.72;;;14.09;100.00
51239;BME280;38154;47.548;18.828;2022-09-01T03:28:11;98767.34;;;14.11;100.00
51239;BME280;38154;47.548;18.828;2022-09-01T03:30:46;98775.13;;;14.16;100.00
51239;BME280;38154;47.548;18.828;2022-09-01T03:33:14;98784.75;;;14.14;100.00
51239;BME280;38154;47.548;18.828;2022-09-01T03:35:42;98780.31;;;14.19;100.00
51239;BME280;38154;47.548;18.828;2022-09-01T03:38:09;98772.41;;;14.23;100.00
51239;BME280;38154;47.548;18.828;2022-09-01T03:40:38;98762.78;;;14.22;100.00
51239;BME280;38154;47.548;18.828;2022-09-01T03:43:07;98749.78;;;14.18;100.00
51239;BME280;38154;47.548;18.828;2022-09-01T03:45:40;98753.38;;;14.06;100.00
51239;BME280;38154;47.548;18.828;2022-09-01T03:48:07;98746.62;;;13.91;100.00
51239;BME280;38154;47.548;18.828;2022-09-01T03:50:39;98746.75;;;13.79;100.00
51239;BME280;38154;47.548;18.828;2022-09-01T03:53:12;98740.75;;;13.69;100.00
51239;BME280;38154;47.548;18.828;2022-09-01T03:55:38;98729.47;;;13.61;100.00
51239;BME280;38154;47.548;18.828;2022-09-01T03:58:06;98737.44;;;13.54;100.00
51239;BME280;38154;47.548;18.828;2022-09-01T04:00:36;98733.16;;;13.47;100.00
51239;BME280;38154;47.548;18.828;2022-09-01T04:03:04;98726.19;;;13.46;100.00
51239;BME280;38154;47.548;18.828;2022-09-01T04:05:33;98732.28;;;13.47;100.00
51239;BME280;38154;47.548;18.828;2022-09-01T04:08:05;98727.94;;;13.44;100.00
51239;BME280;38154;47.548;18.828;2022-09-01T04:10:32;98732.31;;;13.44;100.00
51239;BME280;38154;47.548;18.828;2022-09-01T04:13:00;98724.47;;;13.42;100.00
51239;BME280;38154;47.548;18.828;2022-09-01T04:15:27;98734.06;;;13.43;100.00
51239;BME280;38154;47.548;18.828;2022-09-01T04:17:54;98721.91;;;13.39;100.00
51239;BME280;38154;47.548;18.828;2022-09-01T04:20:38;98726.31;;;13.34;100.00
51239;BME280;38154;47.548;18.828;2022-09-01T04:23:24;98730.66;;;13.30;100.00
51239;BME280;38154;47.548;18.828;2022-09-01T04:26:10;98721.94;;;13.31;100.00
51239;BME280;38154;47.548;18.828;2022-09-01T04:28:41;98723.72;;;13.29;100.00
51239;BME280;38154;47.548;18.828;2022-09-01T04:31:13;98718.50;;;13.28;100.00
51239;BME280;38154;47.548;18.828;2022-09-01T04:33:42;98717.66;;;13.24;100.00
51239;BME280;38154;47.548;18.828;2022-09-01T04:36:29;98724.59;;;13.25;100.00
51239;BME280;38154;47.548;18.828;2022-09-01T04:39:00;98723.75;;;13.25;100.00
51239;BME280;38154;47.548;18.828;2022-09-01T04:41:29;98729.00;;;13.22;100.00
51239;BME280;38154;47.548;18.828;2022-09-01T04:43:59;98723.75;;;13.23;100.00
51239;BME280;38154;47.548;18.828;2022-09-01T04:46:31;98719.38;;;13.24;100.00
51239;BME280;38154;47.548;18.828;2022-09-01T04:49:02;98721.16;;;13.22;100.00
51239;BME280;38154;47.548;18.828;2022-09-01T04:51:43;98717.69;;;13.21;100.00
51239;BME280;38154;47.548;18.828;2022-09-01T04:54:10;98721.16;;;13.20;100.00
51239;BME280;38154;47.548;18.828;2022-09-01T04:56:41;98720.31;;;13.18;100.00
51239;BME280;38154;47.548;18.828;2022-09-01T04:59:08;98732.59;;;13.13;100.00
51239;BME280;38154;47.548;18.828;2022-09-01T05:01:36;98732.59;;;13.13;100.00
51239;BME280;38154;47.548;18.828;2022-09-01T05:04:09;98737.84;;;13.11;100.00
51239;BME280;38154;47.548;18.828;2022-09-01T05:06:40;98737.00;;;13.11;100.00
51239;BME280;38154;47.548;18.828;2022-09-01T05:09:11;98737.84;;;13.11;100.00
51239;BME280;38154;47.548;18.828;2022-09-01T05:11:38;98744.84;;;13.09;100.00
51239;BME280;38154;47.548;18.828;2022-09-01T05:14:05;98743.91;;;13.15;100.00
51239;BME280;38154;47.548;18.828;2022-09-01T05:16:32;98740.38;;;13.21;100.00
51239;BME280;38154;47.548;18.828;2022-09-01T05:18:59;98742.94;;;13.24;100.00
51239;BME280;38154;47.548;18.828;2022-09-01T05:21:27;98745.53;;;13.28;100.00
51239;BME280;38154;47.548;18.828;2022-09-01T05:23:56;98750.75;;;13.34;100.00
51239;BME280;38154;47.548;18.828;2022-09-01T05:26:25;98751.56;;;13.41;100.00
51239;BME280;38154;47.548;18.828;2022-09-01T05:29:02;98750.69;;;13.41;100.00
51239;BME280;38154;47.548;18.828;2022-09-01T05:31:29;98748.91;;;13.46;100.00
51239;BME280;38154;47.548;18.828;2022-09-01T05:34:03;98747.12;;;13.48;100.00
51239;BME280;38154;47.548;18.828;2022-09-01T05:36:29;98754.97;;;13.49;100.00
51239;BME280;38154;47.548;18.828;2022-09-01T05:38:59;98741.84;;;13.51;100.00
51239;BME280;38154;47.548;18.828;2022-09-01T05:41:26;98753.13;;;13.58;100.00
51239;BME280;38154;47.548;18.828;2022-09-01T05:43:53;98762.66;;;13.63;100.00
51239;BME280;38154;47.548;18.828;2022-09-01T05:46:21;98761.63;;;13.77;100.00
51239;BME280;38154;47.548;18.828;2022-09-01T05:48:49;98761.56;;;13.84;100.00
51239;BME280;38154;47.548;18.828;2022-09-01T05:51:21;98761.38;;;13.97;100.00
51239;BME280;38154;47.548;18.828;2022-09-01T05:53:49;98761.34;;;14.01;100.00
51239;BME280;38154;47.548;18.828;2022-09-01T05:56:19;98766.56;;;14.04;100.00
51239;BME280;38154;47.548;18.828;2022-09-01T05:58:45;98758.53;;;14.15;100.00
51239;BME280;38154;47.548;18.828;2022-09-01T06:01:23;98763.81;;;14.10;100.00
51239;BME280;38154;47.548;18.828;2022-09-01T06:03:52;98766.63;;;13.97;100.00
51239;BME280;38154;47.548;18.828;2022-09-01T06:06:24;98769.28;;;13.95;100.00
51239;BME280;38154;47.548;18.828;2022-09-01T06:08:51;98773.66;;;13.95;100.00
51239;BME280;38154;47.548;18.828;2022-09-01T06:11:17;98771.78;;;14.04;100.00
51239;BME280;38154;47.548;18.828;2022-09-01T06:13:44;98783.25;;;13.96;100.00
51239;BME280;38154;47.548;18.828;2022-09-01T06:16:15;98791.09;;;13.96;100.00
51239;BME280;38154;47.548;18.828;2022-09-01T06:18:42;98782.28;;;14.04;100.00
51239;BME280;38154;47.548;18.828;2022-09-01T06:21:10;98778.72;;;14.08;100.00
51239;BME280;38154;47.548;18.828;2022-09-01T06:23:43;98788.41;;;14.03;100.00
51239;BME280;38154;47.548;18.828;2022-09-01T06:26:17;98785.78;;;14.03;100.00
51239;BME280;38154;47.548;18.828;2022-09-01T06:28:43;98781.28;;;14.13;100.00
51239;BME280;38154;47.548;18.828;2022-09-01T06:31:10;98793.41;;;14.22;100.00
51239;BME280;38154;47.548;18.828;2022-09-01T06:33:37;98787.22;;;14.26;100.00
51239;BME280;38154;47.548;18.828;2022-09-01T06:36:04;98794.16;;;14.30;100.00
51239;BME280;38154;47.548;18.828;2022-09-01T06:38:30;98789.59;;;14.44;100.00
51239;BME280;38154;47.548;18.828;2022-09-01T06:41:04;98800.72;;;14.63;100.00
51239;BME280;38154;47.548;18.828;2022-09-01T06:43:40;98797.84;;;14.82;100.00
51239;BME280;38154;47.548;18.828;2022-09-01T06:46:07;98799.63;;;14.80;100.00
51239;BME280;38154;47.548;18.828;2022-09-01T06:48:36;98800.47;;;14.80;100.00
51239;BME280;38154;47.548;18.828;2022-09-01T06:51:04;98800.59;;;14.71;100.00
51239;BME280;38154;47.548;18.828;2022-09-01T06:53:34;98797.09;;;14.72;100.00
51239;BME280;38154;47.548;18.828;2022-09-01T06:56:00;98806.75;;;14.70;100.00
51239;BME280;38154;47.548;18.828;2022-09-01T06:58:27;98809.50;;;14.61;100.00
51239;BME280;38154;47.548;18.828;2022-09-01T07:00:54;98809.50;;;14.61;100.00
51239;BME280;38154;47.548;18.828;2022-09-01T07:03:19;98816.47;;;14.65;100.00
51239;BME280;38154;47.548;18.828;2022-09-01T07:05:48;98823.50;;;14.63;100.00
51239;BME280;38154;47.548;18.828;2022-09-01T07:08:15;98824.47;;;14.53;100.00
51239;BME280;38154;47.548;18.828;2022-09-01T07:10:49;98825.47;;;14.44;100.00
51239;BME280;38154;47.548;18.828;2022-09-01T07:13:19;98831.47;;;14.52;100.00
51239;BME280;38154;47.548;18.828;2022-09-01T07:15:50;98836.66;;;14.60;100.00
51239;BME280;38154;47.548;18.828;2022-09-01T07:18:17;98845.28;;;14.68;100.00
51239;BME280;38154;47.548;18.828;2022-09-01T07:20:43;98848.69;;;14.75;100.00
51239;BME280;38154;47.548;18.828;2022-09-01T07:23:12;98849.56;;;14.75;100.00
51239;BME280;38154;47.548;18.828;2022-09-01T07:25:40;98857.31;;;14.83;100.00
51239;BME280;38154;47.548;18.828;2022-09-01T07:28:07;98846.69;;;14.91;100.00
51239;BME280;38154;47.548;18.828;2022-09-01T07:30:40;98855.25;;;15.05;100.00
51239;BME280;38154;47.548;18.828;2022-09-01T07:33:06;98853.84;;;15.38;100.00
51239;BME280;38154;47.548;18.828;2022-09-01T07:35:38;98843.81;;;15.61;100.00
51239;BME280;38154;47.548;18.828;2022-09-01T07:38:04;98846.06;;;15.84;100.00
51239;BME280;38154;47.548;18.828;2022-09-01T07:40:33;98843.47;;;16.26;100.00
51239;BME280;38154;47.548;18.828;2022-09-01T07:43:09;98840.41;;;16.46;100.00
51239;BME280;38154;47.548;18.828;2022-09-01T07:45:44;98835.78;;;16.56;100.00
51239;BME280;38154;47.548;18.828;2022-09-01T07:48:16;98834.44;;;16.77;100.00
51239;BME280;38154;47.548;18.828;2022-09-01T07:50:47;98827.28;;;16.83;100.00
51239;BME280;38154;47.548;18.828;2022-09-01T07:53:15;98828.81;;;16.94;100.00
51239;BME280;38154;47.548;18.828;2022-09-01T07:55:46;98831.50;;;16.92;100.00
51239;BME280;38154;47.548;18.828;2022-09-01T07:58:14;98837.81;;;16.85;100.00
51239;BME280;38154;47.548;18.828;2022-09-01T08:00:40;98840.41;;;16.86;100.00
51239;BME280;38154;47.548;18.828;2022-09-01T08:03:11;98831.09;;;17.09;100.00
51239;BME280;38154;47.548;18.828;2022-09-01T08:05:37;98839.62;;;17.19;100.00
51239;BME280;38154;47.548;18.828;2022-09-01T08:08:03;98840.78;;;17.45;100.00
51239;BME280;38154;47.548;18.828;2022-09-01T08:10:29;98841.47;;;17.51;100.00
51239;BME280;38154;47.548;18.828;2022-09-01T08:12:55;98834.59;;;17.44;100.00
51239;BME280;38154;47.548;18.828;2022-09-01T08:15:22;98833.13;;;17.34;100.00
51239;BME280;38154;47.548;18.828;2022-09-01T08:17:48;98844.34;;;17.42;100.00
51239;BME280;38154;47.548;18.828;2022-09-01T08:20:14;98841.87;;;17.69;100.00
51239;BME280;38154;47.548;18.828;2022-09-01T08:22:40;98845.09;;;18.13;100.00
51239;BME280;38154;47.548;18.828;2022-09-01T08:25:07;98849.44;;;18.47;100.00
51239;BME280;38154;47.548;18.828;2022-09-01T08:27:35;98855.94;;;18.63;100.00
51239;BME280;38154;47.548;18.828;2022-09-01T08:30:06;98845.31;;;18.66;100.00
51239;BME280;38154;47.548;18.828;2022-09-01T08:32:33;98857.56;;;18.99;100.00
51239;BME280;38154;47.548;18.828;2022-09-01T08:35:00;98859.38;;;18.97;100.00
51239;BME280;38154;47.548;18.828;2022-09-01T08:37:26;98855.69;;;18.72;100.00
51239;BME280;38154;47.548;18.828;2022-09-01T08:39:52;98863.47;;;18.77;100.00
51239;BME280;38154;47.548;18.828;2022-09-01T08:45:18;98867.16;;;18.71;100.00
51239;BME280;38154;47.548;18.828;2022-09-01T08:47:44;98873.06;;;18.80;100.00
51239;BME280;38154;47.548;18.828;2022-09-01T08:50:11;98866.56;;;18.91;100.00
51239;BME280;38154;47.548;18.828;2022-09-01T08:52:57;98868.50;;;18.86;100.00
51239;BME280;38154;47.548;18.828;2022-09-01T08:55:50;98873.06;;;19.09;100.00
51239;BME280;38154;47.548;18.828;2022-09-01T08:58:16;98870.94;;;19.21;100.00
51239;BME280;38154;47.548;18.828;2022-09-01T09:00:45;98867.00;;;19.34;99.58
51239;BME280;38154;47.548;18.828;2022-09-01T09:03:26;98859.00;;;19.62;97.63
51239;BME280;38154;47.548;18.828;2022-09-01T09:06:04;98858.34;;;19.56;100.00
51239;BME280;38154;47.548;18.828;2022-09-01T09:11:59;98855.41;;;19.63;98.42
51239;BME280;38154;47.548;18.828;2022-09-01T09:17:14;98852.88;;;19.87;100.00
51239;BME280;38154;47.548;18.828;2022-09-01T09:19:44;98860.31;;;20.26;91.39
51239;BME280;38154;47.548;18.828;2022-09-01T09:22:13;98856.69;;;21.20;86.27
51239;BME280;38154;47.548;18.828;2022-09-01T09:24:58;98853.47;;;21.34;88.50
51239;BME280;38154;47.548;18.828;2022-09-01T09:27:32;98845.62;;;21.53;86.30
51239;BME280;38154;47.548;18.828;2022-09-01T09:30:08;98841.38;;;22.50;78.29
51239;BME280;38154;47.548;18.828;2022-09-01T09:32:51;98851.44;;;22.82;82.42
51239;BME280;38154;47.548;18.828;2022-09-01T09:35:31;98845.81;;;22.88;77.06
51239;BME280;38154;47.548;18.828;2022-09-01T09:41:09;98839.78;;;25.07;66.05
51239;BME280;38154;47.548;18.828;2022-09-01T09:43:45;98838.53;;;26.48;55.74
51239;BME280;38154;47.548;18.828;2022-09-01T09:51:42;98835.97;;;28.73;38.02
51239;BME280;38154;47.548;18.828;2022-09-01T09:54:14;98835.34;;;28.56;49.14
51239;BME280;38154;47.548;18.828;2022-09-01T09:56:42;98836.34;;;29.40;41.60
51239;BME280;38154;47.548;18.828;2022-09-01T09:59:28;98833.38;;;29.32;37.82
51239;BME280;38154;47.548;18.828;2022-09-01T10:01:58;98828.63;;;29.12;36.11
51239;BME280;38154;47.548;18.828;2022-09-01T10:04:36;98837.09;;;28.94;37.52
51239;BME280;38154;47.548;18.828;2022-09-01T10:07:22;98836.75;;;28.49;39.68
51239;BME280;38154;47.548;18.828;2022-09-01T10:09:50;98830.97;;;28.42;39.89
51239;BME280;38154;47.548;18.828;2022-09-01T10:12:19;98833.59;;;28.68;37.40
51239;BME280;38154;47.548;18.828;2022-09-01T10:14:50;98833.91;;;29.00;34.89
51239;BME280;38154;47.548;18.828;2022-09-01T10:17:38;98834.50;;;28.30;34.53
51239;BME280;38154;47.548;18.828;2022-09-01T10:20:12;98817.66;;;27.36;36.19
51239;BME280;38154;47.548;18.828;2022-09-01T10:22:41;98821.03;;;27.26;38.19
51239;BME280;38154;47.548;18.828;2022-09-01T10:25:12;98812.84;;;27.42;36.44
51239;BME280;38154;47.548;18.828;2022-09-01T10:27:42;98818.69;;;27.61;36.91
51239;BME280;38154;47.548;18.828;2022-09-01T10:30:12;98824.22;;;27.98;35.78
51239;BME280;38154;47.548;18.828;2022-09-01T10:32:43;98831.94;;;27.37;36.40
51239;BME280;38154;47.548;18.828;2022-09-01T10:35:20;98822.91;;;27.91;35.80
51239;BME280;38154;47.548;18.828;2022-09-01T10:37:49;98820.75;;;26.33;36.93
51239;BME280;38154;47.548;18.828;2022-09-01T10:40:17;98824.38;;;25.58;38.31
51239;BME280;38154;47.548;18.828;2022-09-01T10:42:46;98816.56;;;26.43;36.96
51239;BME280;38154;47.548;18.828;2022-09-01T10:45:38;98818.63;;;26.52;36.24
51239;BME280;38154;47.548;18.828;2022-09-01T10:50:51;98814.78;;;27.12;36.94
51239;BME280;38154;47.548;18.828;2022-09-01T11:04:13;98811.94;;;29.79;31.55
51239;BME280;38154;47.548;18.828;2022-09-01T11:06:57;98808.81;;;30.19;32.30
51239;BME280;38154;47.548;18.828;2022-09-01T11:09:33;98805.88;;;30.79;31.60
51239;BME280;38154;47.548;18.828;2022-09-01T11:17:24;98812.25;;;30.55;32.21
51239;BME280;38154;47.548;18.828;2022-09-01T11:20:23;98811.75;;;30.61;32.74
51239;BME280;38154;47.548;18.828;2022-09-01T11:23:03;98808.34;;;30.59;29.59
51239;BME280;38154;47.548;18.828;2022-09-01T11:30:50;98802.41;;;30.88;29.61
51239;BME280;38154;47.548;18.828;2022-09-01T11:33:42;98805.47;;;30.83;31.15
51239;BME280;38154;47.548;18.828;2022-09-01T11:38:50;98791.44;;;29.89;28.82
51239;BME280;38154;47.548;18.828;2022-09-01T11:43:51;98800.03;;;30.51;28.76
51239;BME280;38154;47.548;18.828;2022-09-01T11:46:25;98804.28;;;30.31;28.47
51239;BME280;38154;47.548;18.828;2022-09-01T11:48:53;98800.88;;;30.18;28.73
51239;BME280;38154;47.548;18.828;2022-09-01T11:51:20;98800.75;;;30.30;28.40
51239;BME280;38154;47.548;18.828;2022-09-01T11:53:46;98796.97;;;30.22;28.96
51239;BME280;38154;47.548;18.828;2022-09-01T11:58:38;98799.78;;;28.03;30.67
51239;BME280;38154;47.548;18.828;2022-09-01T12:01:13;98795.75;;;27.70;32.24
51239;BME280;38154;47.548;18.828;2022-09-01T12:03:40;98798.50;;;27.43;32.71
51239;BME280;38154;47.548;18.828;2022-09-01T12:06:09;98788.00;;;26.29;33.15
51239;BME280;38154;47.548;18.828;2022-09-01T12:08:39;98791.63;;;26.98;33.43
51239;BME280;38154;47.548;18.828;2022-09-01T12:11:09;98786.63;;;27.07;33.47
51239;BME280;38154;47.548;18.828;2022-09-01T12:13:37;98778.28;;;26.84;35.11
51239;BME280;38154;47.548;18.828;2022-09-01T12:16:06;98783.53;;;26.86;36.76
51239;BME280;38154;47.548;18.828;2022-09-01T12:18:47;98779.47;;;26.65;33.80
51239;BME280;38154;47.548;18.828;2022-09-01T12:21:32;98776.66;;;27.09;33.74
51239;BME280;38154;47.548;18.828;2022-09-01T12:24:16;98784.69;;;27.09;32.72
51239;BME280;38154;47.548;18.828;2022-09-01T12:26:43;98774.91;;;26.53;32.90
51239;BME280;38154;47.548;18.828;2022-09-01T12:29:11;98775.16;;;26.21;33.34
51239;BME280;38154;47.548;18.828;2022-09-01T12:31:43;98770.78;;;25.61;35.83
51239;BME280;38154;47.548;18.828;2022-09-01T12:34:35;98768.16;;;25.31;35.88
51239;BME280;38154;47.548;18.828;2022-09-01T12:37:06;98765.81;;;25.25;37.17
51239;BME280;38154;47.548;18.828;2022-09-01T12:39:43;98768.75;;;25.36;36.86
51239;BME280;38154;47.548;18.828;2022-09-01T12:44:51;98778.28;;;24.30;37.96
51239;BME280;38154;47.548;18.828;2022-09-01T12:50:07;98763.66;;;23.70;39.38
51239;BME280;38154;47.548;18.828;2022-09-01T12:52:34;98769.56;;;23.60;39.86
51239;BME280;38154;47.548;18.828;2022-09-01T12:57:29;98757.38;;;23.38;39.74
51239;BME280;38154;47.548;18.828;2022-09-01T13:02:43;98760.97;;;23.55;40.59
51239;BME280;38154;47.548;18.828;2022-09-01T13:05:27;98769.75;;;23.73;39.80
51239;BME280;38154;47.548;18.828;2022-09-01T13:07:54;98763.38;;;23.42;38.31
51239;BME280;38154;47.548;18.828;2022-09-01T13:10:22;98768.31;;;23.32;39.43
51239;BME280;38154;47.548;18.828;2022-09-01T13:12:50;98767.88;;;23.05;40.41
51239;BME280;38154;47.548;18.828;2022-09-01T13:15:16;98770.91;;;22.97;39.72
51239;BME280;38154;47.548;18.828;2022-09-01T13:17:42;98772.50;;;23.01;40.55
51239;BME280;38154;47.548;18.828;2022-09-01T13:20:08;98760.50;;;23.11;41.64
51239;BME280;38154;47.548;18.828;2022-09-01T13:22:36;98761.81;;;23.38;40.42
51239;BME280;38154;47.548;18.828;2022-09-01T13:25:03;98761.34;;;23.47;39.62
51239;BME280;38154;47.548;18.828;2022-09-01T13:27:29;98765.47;;;23.70;40.27
51239;BME280;38154;47.548;18.828;2022-09-01T13:29:55;98765.47;;;23.70;39.55
51239;BME280;38154;47.548;18.828;2022-09-01T13:32:22;98774.63;;;23.12;41.14
51239;BME280;38154;47.548;18.828;2022-09-01T13:34:49;98770.91;;;22.97;40.33
51239;BME280;38154;47.548;18.828;2022-09-01T13:37:16;98778.47;;;23.06;39.87
51239;BME280;38154;47.548;18.828;2022-09-01T13:39:42;98773.63;;;22.95;41.51
51239;BME280;38154;47.548;18.828;2022-09-01T13:42:08;98771.75;;;22.97;41.58
51239;BME280;38154;47.548;18.828;2022-09-01T13:44:34;98766.50;;;23.15;44.54
51239;BME280;38154;47.548;18.828;2022-09-01T13:47:00;98763.97;;;22.94;41.33
51239;BME280;38154;47.548;18.828;2022-09-01T13:49:26;98767.69;;;22.90;40.83
51239;BME280;38154;47.548;18.828;2022-09-01T13:51:52;98763.41;;;22.88;41.38
51239;BME280;38154;47.548;18.828;2022-09-01T13:54:19;98768.09;;;23.00;39.89
51239;BME280;38154;47.548;18.828;2022-09-01T13:56:45;98769.41;;;23.10;40.31
51239;BME280;38154;47.548;18.828;2022-09-01T13:59:11;98769.25;;;23.31;40.41
51239;BME280;38154;47.548;18.828;2022-09-01T14:01:37;98771.34;;;23.07;39.47